Time;durP1;ratioP1;P1;durP2;ratioP2;P2;SDS_P1;SDS_P2;PMS_P1;PMS_P2;Temp;Humidity;BMP_temperature;BMP_pressure;BME280_temperature;BME280_humidity;BME280_pressure;Samples;Min_cycle;Max_cycle;Signal;HPM_P1;HPM_P2
2021/11/26 00:01:52;;;;;;;50.97;23.57;;;-0.70;99.90;;;;;;4159366;28;20267;-59
2021/11/26 00:03:53;;;;;;;48.27;23.30;;;-0.70;99.90;;;;;;4157727;28;20316;-58
2021/11/26 00:05:54;;;;;;;54.10;24.20;;;-0.60;99.90;;;;;;4159456;28;20674;-60
2021/11/26 00:07:56;;;;;;;51.63;23.30;;;-0.60;99.90;;;;;;4158935;28;20270;-58
2021/11/26 00:09:58;;;;;;;52.53;23.50;;;-0.60;99.90;;;;;;4158443;28;21030;-57
2021/11/26 00:11:59;;;;;;;49.73;23.53;;;-0.50;99.90;;;;;;4158705;28;20352;-57
2021/11/26 00:16:08;;;;;;;47.20;23.20;;;-0.50;99.90;;;;;;4158944;28;20348;-60
2021/11/26 00:18:19;;;;;;;49.30;23.20;;;-0.40;99.90;;;;;;4158298;28;20693;-62
2021/11/26 00:20:20;;;;;;;48.97;22.20;;;-0.40;99.90;;;;;;4159048;28;20320;-59
2021/11/26 00:22:22;;;;;;;50.40;23.27;;;-0.30;99.90;;;;;;4158451;28;20301;-59
2021/11/26 00:24:24;;;;;;;52.37;22.83;;;-0.30;99.90;;;;;;4159036;28;20255;-59
2021/11/26 00:26:25;;;;;;;50.33;21.97;;;-0.30;99.90;;;;;;4158337;28;20781;-58
2021/11/26 00:28:26;;;;;;;46.93;20.63;;;-0.30;99.90;;;;;;4158387;28;20283;-58
2021/11/26 00:30:27;;;;;;;47.53;21.57;;;-0.20;99.90;;;;;;4158148;28;21058;-57
2021/11/26 00:32:28;;;;;;;47.50;23.47;;;-0.20;99.90;;;;;;4158942;28;20318;-59
2021/11/26 00:34:30;;;;;;;44.43;21.60;;;-0.10;99.90;;;;;;4157956;28;20267;-59
2021/11/26 00:36:32;;;;;;;43.63;21.70;;;-0.20;99.90;;;;;;4158910;28;20283;-59
2021/11/26 00:38:33;;;;;;;46.80;21.57;;;-0.20;99.90;;;;;;4157898;28;20263;-61
2021/11/26 00:40:34;;;;;;;51.33;23.50;;;-0.10;99.90;;;;;;4158341;28;20266;-58
2021/11/26 00:42:36;;;;;;;50.00;21.87;;;-0.10;99.90;;;;;;4158197;28;20259;-60
2021/11/26 00:44:38;;;;;;;46.23;21.60;;;-0.10;99.90;;;;;;4157902;28;20279;-59
2021/11/26 00:46:39;;;;;;;44.77;20.40;;;-0.20;99.90;;;;;;4157955;28;20759;-59
2021/11/26 00:48:40;;;;;;;45.57;21.80;;;-0.20;99.90;;;;;;4158313;28;20283;-59
2021/11/26 00:50:43;;;;;;;45.07;21.47;;;-0.20;99.90;;;;;;4158024;28;20322;-60
2021/11/26 00:52:44;;;;;;;45.63;20.73;;;-0.20;99.90;;;;;;4157918;28;20306;-59
2021/11/26 00:54:45;;;;;;;48.07;22.00;;;-0.20;99.90;;;;;;4158252;28;20274;-56
2021/11/26 00:56:46;;;;;;;46.70;22.20;;;-0.20;99.90;;;;;;4156664;28;20271;-60
2021/11/26 00:58:48;;;;;;;44.20;21.13;;;-0.30;99.90;;;;;;4158131;28;20296;-61
2021/11/26 01:00:49;;;;;;;48.10;20.57;;;-0.30;99.90;;;;;;4157445;28;20287;-59
2021/11/26 01:02:50;;;;;;;45.53;22.73;;;-0.30;99.90;;;;;;4158482;28;20283;-60
2021/11/26 01:04:51;;;;;;;45.97;21.33;;;-0.30;99.90;;;;;;4157282;28;20259;-59
2021/11/26 01:06:52;;;;;;;50.70;22.83;;;-0.30;99.90;;;;;;4158513;28;20347;-59
2021/11/26 01:08:53;;;;;;;47.40;20.80;;;-0.30;99.90;;;;;;4157871;28;20263;-59
2021/11/26 01:10:55;;;;;;;44.13;20.30;;;-0.30;99.90;;;;;;4157332;28;21178;-61
2021/11/26 01:12:57;;;;;;;50.93;22.13;;;-0.30;99.90;;;;;;4157251;28;20340;-61
2021/11/26 01:14:58;;;;;;;44.60;21.40;;;-0.30;99.90;;;;;;4157435;28;20325;-60
2021/11/26 01:16:59;;;;;;;46.87;21.47;;;-0.20;99.90;;;;;;4157898;28;20270;-61
2021/11/26 01:19:01;;;;;;;47.17;22.77;;;-0.30;99.90;;;;;;4157648;28;20278;-60
2021/11/26 01:21:04;;;;;;;46.47;21.57;;;-0.30;99.90;;;;;;4157702;28;20931;-58
2021/11/26 01:23:07;;;;;;;47.70;21.63;;;-0.20;99.90;;;;;;4157125;28;20755;-60
2021/11/26 01:25:10;;;;;;;42.90;20.23;;;-0.20;99.90;;;;;;4157760;28;20836;-57
2021/11/26 01:27:11;;;;;;;51.27;22.93;;;-0.30;99.90;;;;;;4157167;28;20285;-60
2021/11/26 01:29:12;;;;;;;46.87;21.63;;;-0.30;99.90;;;;;;4158144;28;20284;-60
2021/11/26 01:31:14;;;;;;;51.57;21.43;;;-0.30;99.90;;;;;;4157356;28;20259;-60
2021/11/26 01:33:17;;;;;;;46.13;22.87;;;-0.30;99.90;;;;;;4157909;28;20267;-60
2021/11/26 01:35:18;;;;;;;46.50;21.27;;;-0.30;99.90;;;;;;4156973;28;20293;-59
2021/11/26 01:37:19;;;;;;;42.33;21.00;;;-0.30;99.90;;;;;;4158483;28;20317;-59
2021/11/26 01:39:20;;;;;;;49.77;22.63;;;-0.30;99.90;;;;;;4157054;28;20750;-60
2021/11/26 01:41:22;;;;;;;47.53;21.93;;;-0.30;99.90;;;;;;4157747;28;20321;-58
2021/11/26 01:43:23;;;;;;;54.73;23.80;;;-0.30;99.90;;;;;;4156975;28;20263;-59
2021/11/26 01:45:25;;;;;;;45.17;22.43;;;-0.30;99.90;;;;;;4157477;28;20259;-59
2021/11/26 01:47:27;;;;;;;42.67;21.97;;;-0.30;99.90;;;;;;4157032;28;20678;-62
2021/11/26 01:49:28;;;;;;;49.03;23.43;;;-0.30;99.90;;;;;;4157523;28;20694;-60
2021/11/26 01:51:29;;;;;;;45.67;22.80;;;-0.30;99.90;;;;;;4156482;28;20287;-60
2021/11/26 01:53:30;;;;;;;48.13;22.77;;;-0.30;99.90;;;;;;4157470;28;20271;-59
2021/11/26 01:55:32;;;;;;;45.03;22.23;;;-0.30;99.90;;;;;;4157071;28;20741;-59
2021/11/26 01:57:34;;;;;;;50.87;23.13;;;-0.30;99.90;;;;;;4155977;28;20282;-60
2021/11/26 01:59:35;;;;;;;52.27;22.47;;;-0.30;99.90;;;;;;4157222;28;20255;-60
2021/11/26 02:01:36;;;;;;;45.37;21.17;;;-0.30;99.90;;;;;;4157128;28;20360;-60
2021/11/26 02:03:38;;;;;;;46.73;22.23;;;-0.30;99.90;;;;;;4157698;28;20263;-60
2021/11/26 02:05:39;;;;;;;46.33;22.47;;;-0.30;99.90;;;;;;4156087;28;20262;-57
2021/11/26 02:07:40;;;;;;;42.00;19.47;;;-0.30;99.90;;;;;;4158022;28;20360;-57
2021/11/26 02:09:42;;;;;;;47.03;20.93;;;-0.30;99.90;;;;;;4156390;28;20316;-62
2021/11/26 02:11:43;;;;;;;46.30;20.63;;;-0.30;99.90;;;;;;4156963;28;20705;-59
2021/11/26 02:13:45;;;;;;;45.70;21.77;;;-0.30;99.90;;;;;;4155856;28;20286;-60
2021/11/26 02:15:46;;;;;;;44.47;21.37;;;-0.30;99.90;;;;;;4156909;28;20332;-58
2021/11/26 02:17:49;;;;;;;44.87;21.70;;;-0.30;99.90;;;;;;4156950;28;20325;-60
2021/11/26 02:19:55;;;;;;;41.53;20.47;;;-0.30;99.90;;;;;;4157037;28;20271;-59
2021/11/26 02:21:56;;;;;;;45.33;20.83;;;-0.20;99.90;;;;;;4156531;28;20275;-61
2021/11/26 02:23:58;;;;;;;42.47;21.70;;;-0.20;99.90;;;;;;4156801;28;20654;-59
2021/11/26 02:25:59;;;;;;;43.17;20.97;;;-0.30;99.90;;;;;;4156965;28;20796;-58
2021/11/26 02:28:03;;;;;;;49.23;21.00;;;-0.20;99.90;;;;;;4156720;28;20681;-60
2021/11/26 02:30:18;;;;;;;43.83;20.70;;;-0.20;99.90;;;;;;4156680;28;20320;-57
2021/11/26 02:32:20;;;;;;;40.43;20.47;;;-0.20;99.90;;;;;;4156520;28;20294;-60
2021/11/26 02:34:22;;;;;;;43.70;19.33;;;-0.30;99.90;;;;;;4156750;28;20616;-60
2021/11/26 02:36:23;;;;;;;41.70;20.30;;;-0.30;99.90;;;;;;4155912;28;20393;-61
2021/11/26 02:38:25;;;;;;;47.03;21.23;;;-0.30;99.90;;;;;;4155779;28;20324;-60
2021/11/26 02:40:29;;;;;;;41.80;21.20;;;-0.30;99.90;;;;;;4155417;28;20258;-60
2021/11/26 02:42:30;;;;;;;43.33;20.97;;;-0.30;99.90;;;;;;4157115;28;20711;-59
2021/11/26 02:44:31;;;;;;;45.50;20.53;;;-0.30;99.90;;;;;;4156269;28;20663;-60
2021/11/26 02:46:32;;;;;;;44.73;20.20;;;-0.30;99.90;;;;;;4156558;28;20266;-61
2021/11/26 02:48:34;;;;;;;41.83;20.20;;;-0.40;99.90;;;;;;4155145;28;20333;-60
2021/11/26 02:50:35;;;;;;;37.10;18.47;;;-0.40;99.90;;;;;;4156235;28;20270;-59
2021/11/26 02:52:38;;;;;;;42.30;19.37;;;-0.40;99.90;;;;;;4155638;28;20361;-60
2021/11/26 02:54:39;;;;;;;45.20;20.30;;;-0.40;99.90;;;;;;4156234;28;20308;-69
2021/11/26 02:56:40;;;;;;;40.37;20.07;;;-0.50;99.90;;;;;;4156207;28;20263;-66
2021/11/26 02:58:41;;;;;;;50.60;22.10;;;-0.40;99.90;;;;;;4155897;28;20336;-61
2021/11/26 03:00:45;;;;;;;43.87;20.77;;;-0.50;99.90;;;;;;4155902;28;20328;-61
2021/11/26 03:02:47;;;;;;;44.07;20.60;;;-0.50;99.90;;;;;;4155629;28;20283;-60
2021/11/26 03:04:48;;;;;;;39.87;20.13;;;-0.50;99.90;;;;;;4156421;28;20608;-60
2021/11/26 03:07:00;;;;;;;37.33;18.37;;;-0.50;99.90;;;;;;4155733;28;20344;-58
2021/11/26 03:09:01;;;;;;;43.63;19.60;;;-0.50;99.90;;;;;;4156755;28;20330;-60
2021/11/26 03:11:04;;;;;;;42.00;20.63;;;-0.50;99.90;;;;;;4156030;28;20266;-60
2021/11/26 03:13:07;;;;;;;40.20;20.43;;;-0.50;99.90;;;;;;4155840;28;20845;-58
2021/11/26 03:15:09;;;;;;;40.57;19.00;;;-0.50;99.90;;;;;;4155418;28;20267;-61
2021/11/26 03:17:10;;;;;;;37.10;18.50;;;-0.50;99.90;;;;;;4155607;28;20274;-60
2021/11/26 03:19:11;;;;;;;35.47;18.13;;;-0.60;99.90;;;;;;4155464;28;20341;-59
2021/11/26 03:21:12;;;;;;;39.93;18.60;;;-0.60;99.90;;;;;;4156338;28;20297;-61
2021/11/26 03:23:14;;;;;;;40.57;18.33;;;-0.60;99.90;;;;;;4155621;28;20271;-59
2021/11/26 03:25:16;;;;;;;36.87;17.90;;;-0.60;99.90;;;;;;4156016;28;20279;-60
2021/11/26 03:27:17;;;;;;;36.90;18.03;;;-0.60;99.90;;;;;;4154881;28;20266;-59
2021/11/26 03:29:18;;;;;;;41.63;19.73;;;-0.70;99.90;;;;;;4156430;28;20312;-60
2021/11/26 03:31:19;;;;;;;37.50;17.97;;;-0.70;99.90;;;;;;4155623;28;20258;-58
2021/11/26 03:33:20;;;;;;;41.43;19.00;;;-0.70;99.90;;;;;;4155889;28;20687;-60
2021/11/26 03:35:22;;;;;;;38.03;18.40;;;-0.70;99.90;;;;;;4155544;28;20286;-59
2021/11/26 03:37:24;;;;;;;38.37;19.03;;;-0.70;99.90;;;;;;4155698;28;20337;-61
2021/11/26 03:39:25;;;;;;;41.77;19.83;;;-0.80;99.90;;;;;;4156015;28;20312;-58
2021/11/26 03:41:26;;;;;;;39.37;19.23;;;-0.80;99.90;;;;;;4155399;28;20857;-60
2021/11/26 03:43:27;;;;;;;40.73;18.63;;;-0.80;99.90;;;;;;4156230;28;20263;-60
2021/11/26 03:45:30;;;;;;;41.30;20.17;;;-0.90;99.90;;;;;;4155491;28;20320;-60
2021/11/26 03:47:31;;;;;;;40.33;19.43;;;-0.80;99.90;;;;;;4156363;28;20320;-59
2021/11/26 03:49:33;;;;;;;42.23;20.60;;;-0.90;99.90;;;;;;4154887;28;20271;-59
2021/11/26 03:51:34;;;;;;;42.97;18.97;;;-0.90;99.90;;;;;;4155909;28;20345;-58
2021/11/26 03:53:35;;;;;;;36.93;17.97;;;-0.90;99.90;;;;;;4155024;28;20389;-57
2021/11/26 03:55:36;;;;;;;44.83;19.33;;;-0.90;99.90;;;;;;4156126;28;20275;-59
2021/11/26 03:57:39;;;;;;;37.23;18.63;;;-0.90;99.90;;;;;;4153364;28;20344;-60
2021/11/26 03:59:40;;;;;;;38.07;18.10;;;-0.90;99.90;;;;;;4155831;28;20278;-60
2021/11/26 04:01:42;;;;;;;41.50;19.67;;;-0.90;99.90;;;;;;4154834;28;20332;-60
2021/11/26 04:03:43;;;;;;;39.23;18.47;;;-0.90;99.90;;;;;;4155599;28;20341;-58
2021/11/26 04:05:44;;;;;;;36.07;17.87;;;-0.90;99.90;;;;;;4155286;28;20297;-57
2021/11/26 04:07:46;;;;;;;40.67;18.00;;;-0.90;99.90;;;;;;4155959;28;21016;-60
2021/11/26 04:09:47;;;;;;;38.93;19.07;;;-0.90;99.90;;;;;;4155192;28;20333;-58
2021/11/26 04:11:48;;;;;;;34.83;17.60;;;-0.90;99.90;;;;;;4155390;28;20345;-59
2021/11/26 04:13:49;;;;;;;45.57;17.90;;;-0.90;99.90;;;;;;4155908;28;20944;-59
2021/11/26 04:15:51;;;;;;;39.33;19.17;;;-1.00;99.90;;;;;;4154974;28;20282;-58
2021/11/26 04:17:55;;;;;;;39.50;19.03;;;-1.00;99.90;;;;;;4155552;28;20771;-57
2021/11/26 04:19:56;;;;;;;34.23;17.50;;;-1.00;99.90;;;;;;4155084;28;20306;-66
2021/11/26 04:21:57;;;;;;;34.20;17.57;;;-1.00;99.90;;;;;;4155451;28;20287;-60
2021/11/26 04:23:58;;;;;;;38.87;17.53;;;-1.00;99.90;;;;;;4154585;28;20275;-65
2021/11/26 04:26:00;;;;;;;41.93;17.47;;;-1.10;99.90;;;;;;4155547;28;20290;-60
2021/11/26 04:28:02;;;;;;;38.53;18.20;;;-1.10;99.90;;;;;;4154948;28;20283;-60
2021/11/26 04:30:05;;;;;;;36.03;17.50;;;-1.10;99.90;;;;;;4155559;28;20757;-59
2021/11/26 04:32:08;;;;;;;38.63;18.73;;;-1.10;99.90;;;;;;4154710;28;20340;-59
2021/11/26 04:34:09;;;;;;;39.47;19.57;;;-1.20;99.90;;;;;;4155167;28;20275;-58
2021/11/26 04:36:10;;;;;;;40.20;20.20;;;-1.20;99.90;;;;;;4155418;28;20812;-58
2021/11/26 04:38:11;;;;;;;39.50;20.57;;;-1.20;99.90;;;;;;4158634;28;20325;-58
2021/11/26 04:40:14;;;;;;;42.77;20.77;;;-1.20;99.90;;;;;;4158027;28;20287;-60
2021/11/26 04:42:15;;;;;;;43.60;19.10;;;-1.20;99.90;;;;;;4158499;28;20266;-58
2021/11/26 04:44:16;;;;;;;35.50;17.40;;;-1.30;99.90;;;;;;4158001;28;20678;-64
2021/11/26 04:46:18;;;;;;;36.93;18.67;;;-1.30;99.90;;;;;;4157786;28;20262;-60
2021/11/26 04:48:21;;;;;;;39.40;18.40;;;-1.40;99.90;;;;;;4158349;28;20271;-59
2021/11/26 04:50:22;;;;;;;38.43;18.87;;;-1.40;99.90;;;;;;4157818;28;20278;-60
2021/11/26 04:52:23;;;;;;;40.63;19.27;;;-1.50;99.90;;;;;;4157683;28;20298;-57
2021/11/26 04:54:24;;;;;;;39.20;18.20;;;-1.50;99.90;;;;;;4157694;28;20274;-59
2021/11/26 04:56:26;;;;;;;39.13;19.03;;;-1.50;99.90;;;;;;4158280;28;20275;-58
2021/11/26 04:58:27;;;;;;;38.43;20.13;;;-1.50;99.90;;;;;;4157275;28;20394;-59
2021/11/26 05:00:28;;;;;;;41.70;19.83;;;-1.60;99.90;;;;;;4158117;28;20348;-58
2021/11/26 05:02:29;;;;;;;42.50;19.57;;;-1.60;99.90;;;;;;4157515;28;20269;-58
2021/11/26 05:04:30;;;;;;;45.37;20.70;;;-1.60;99.90;;;;;;4157057;28;20279;-59
2021/11/26 05:06:34;;;;;;;41.37;20.70;;;-1.60;99.90;;;;;;4157262;28;20258;-60
2021/11/26 05:08:36;;;;;;;42.23;20.23;;;-1.60;99.90;;;;;;4158391;28;20247;-60
2021/11/26 05:10:37;;;;;;;41.40;19.47;;;-1.70;99.90;;;;;;4157250;28;20267;-59
2021/11/26 05:12:44;;;;;;;48.20;19.27;;;-1.70;99.90;;;;;;4155825;28;20333;-58
2021/11/26 05:14:45;;;;;;;44.57;19.30;;;-1.60;99.90;;;;;;4157387;28;20346;-60
2021/11/26 05:16:47;;;;;;;49.13;22.30;;;-1.60;99.90;;;;;;4157231;28;20270;-60
2021/11/26 05:18:48;;;;;;;44.77;21.13;;;-1.70;99.90;;;;;;4157050;28;20305;-60
2021/11/26 05:20:51;;;;;;;42.93;19.67;;;-1.70;99.90;;;;;;4156890;28;20259;-59
2021/11/26 05:22:52;;;;;;;40.40;20.13;;;-1.60;99.90;;;;;;4157074;28;20270;-60
2021/11/26 05:24:53;;;;;;;41.60;19.23;;;-1.60;99.90;;;;;;4156434;28;20304;-60
2021/11/26 05:26:54;;;;;;;41.13;19.07;;;-1.60;99.90;;;;;;4157252;28;20731;-62
2021/11/26 05:28:55;;;;;;;39.10;19.70;;;-1.60;99.90;;;;;;4156739;28;20255;-60
2021/11/26 05:30:57;;;;;;;38.00;18.03;;;-1.50;99.90;;;;;;4157720;28;20301;-55
2021/11/26 05:33:00;;;;;;;37.90;18.73;;;-1.40;99.90;;;;;;4156536;28;20291;-61
2021/11/26 05:35:01;;;;;;;39.00;17.50;;;-1.40;99.90;;;;;;4157620;28;20324;-61
2021/11/26 05:37:03;;;;;;;39.67;19.60;;;-1.30;99.90;;;;;;4156878;28;20715;-62
2021/11/26 05:39:05;;;;;;;40.57;19.27;;;-1.30;99.90;;;;;;4157503;28;20279;-62
2021/11/26 05:41:06;;;;;;;42.93;18.50;;;-1.30;99.90;;;;;;4156523;28;20275;-62
2021/11/26 05:43:08;;;;;;;38.27;19.13;;;-1.30;99.90;;;;;;4153062;28;20349;-67
2021/11/26 05:45:11;;;;;;;47.23;19.47;;;-1.30;99.90;;;;;;4156779;28;20259;-61
2021/11/26 05:47:12;;;;;;;41.57;19.33;;;-1.20;99.90;;;;;;4156420;28;20320;-61
2021/11/26 05:49:13;;;;;;;38.23;18.33;;;-1.10;99.90;;;;;;4156227;28;20340;-62
2021/11/26 05:51:15;;;;;;;33.63;16.83;;;-1.20;99.90;;;;;;4156067;28;20282;-62
2021/11/26 05:53:16;;;;;;;41.77;19.00;;;-1.10;99.90;;;;;;4155878;28;20935;-61
2021/11/26 05:55:21;;;;;;;47.53;19.30;;;-1.10;99.90;;;;;;4155705;28;20274;-60
2021/11/26 05:57:22;;;;;;;51.03;18.47;;;-1.10;99.90;;;;;;4155944;28;20977;-62
2021/11/26 05:59:23;;;;;;;45.00;18.47;;;-1.00;99.90;;;;;;4150888;28;20400;-62
2021/11/26 06:01:24;;;;;;;43.13;19.50;;;-0.90;99.90;;;;;;4156624;28;20820;-58
2021/11/26 06:03:26;;;;;;;42.47;21.07;;;-0.80;99.90;;;;;;4155805;28;20262;-60
2021/11/26 06:05:28;;;;;;;42.20;20.47;;;-0.70;99.90;;;;;;4156900;28;20353;-60
2021/11/26 06:07:29;;;;;;;47.33;18.17;;;-0.60;99.90;;;;;;4155659;28;20267;-60
2021/11/26 06:09:31;;;;;;;38.77;17.97;;;-0.40;99.90;;;;;;4157046;28;20751;-60
2021/11/26 06:11:32;;;;;;;40.30;18.87;;;-0.30;99.90;;;;;;4155757;28;20689;-60
2021/11/26 06:13:33;;;;;;;41.43;20.13;;;-0.20;99.90;;;;;;4156930;28;20299;-60
2021/11/26 06:15:35;;;;;;;45.83;20.93;;;0.20;99.90;;;;;;4156611;28;20270;-61
2021/11/26 06:17:38;;;;;;;44.60;20.87;;;0.40;99.90;;;;;;4156492;28;20364;-61
2021/11/26 06:19:39;;;;;;;36.80;17.87;;;0.60;99.90;;;;;;4156216;28;20329;-60
2021/11/26 06:21:40;;;;;;;41.30;18.80;;;0.80;99.90;;;;;;4156421;28;20309;-61
2021/11/26 06:23:41;;;;;;;40.47;19.17;;;0.90;99.90;;;;;;4156328;28;20774;-60
2021/11/26 06:25:43;;;;;;;38.43;17.37;;;1.00;99.90;;;;;;4155287;28;20961;-60
2021/11/26 06:27:45;;;;;;;36.10;16.23;;;1.10;99.90;;;;;;4156376;28;20274;-60
2021/11/26 06:29:46;;;;;;;31.90;16.97;;;1.10;99.90;;;;;;4154956;28;20262;-60
2021/11/26 06:31:48;;;;;;;35.73;17.27;;;1.20;99.90;;;;;;4155862;28;20328;-61
2021/11/26 06:33:49;;;;;;;36.40;17.03;;;1.40;99.90;;;;;;4155780;28;20295;-60
2021/11/26 06:35:50;;;;;;;33.07;16.97;;;1.40;99.90;;;;;;4156840;28;20262;-61
2021/11/26 06:37:53;;;;;;;33.67;15.90;;;1.30;99.90;;;;;;4155176;28;20344;-60
2021/11/26 06:39:55;;;;;;;29.80;16.20;;;1.30;99.90;;;;;;4156057;28;20291;-62
2021/11/26 06:41:56;;;;;;;34.13;17.03;;;1.40;99.90;;;;;;4155285;28;20341;-63
2021/11/26 06:43:57;;;;;;;31.60;15.93;;;1.50;99.90;;;;;;4155781;28;20305;-64
2021/11/26 06:45:58;;;;;;;39.37;18.60;;;1.40;99.90;;;;;;4154313;28;20275;-61
2021/11/26 06:48:00;;;;;;;36.00;18.03;;;1.40;99.90;;;;;;4155700;28;20953;-62
2021/11/26 06:50:02;;;;;;;29.97;15.80;;;1.50;99.90;;;;;;4155932;28;20283;-61
2021/11/26 06:52:04;;;;;;;33.73;15.70;;;1.50;99.90;;;;;;4154899;28;20333;-62
2021/11/26 06:54:05;;;;;;;29.50;15.77;;;1.50;99.90;;;;;;4154178;28;20303;-62
2021/11/26 06:56:06;;;;;;;40.00;17.77;;;1.50;99.90;;;;;;4155790;28;20274;-61
2021/11/26 06:58:07;;;;;;;28.07;14.80;;;1.60;99.90;;;;;;4154382;28;20287;-61
2021/11/26 07:00:12;;;;;;;32.27;16.50;;;1.70;99.90;;;;;;4155064;28;20274;-61
2021/11/26 07:02:13;;;;;;;31.87;16.47;;;1.70;99.90;;;;;;4155538;28;20789;-61
2021/11/26 07:04:14;;;;;;;33.63;16.00;;;1.80;99.90;;;;;;4154845;28;21306;-61
2021/11/26 07:06:15;;;;;;;30.60;15.73;;;1.90;99.90;;;;;;4155785;28;20282;-62
2021/11/26 07:08:20;;;;;;;32.53;16.77;;;1.90;99.90;;;;;;4155156;28;20270;-62
2021/11/26 07:10:21;;;;;;;38.93;17.17;;;1.50;99.90;;;;;;4156501;28;20332;-61
2021/11/26 07:12:22;;;;;;;33.10;16.00;;;1.40;99.90;;;;;;4155005;28;20329;-62
2021/11/26 07:14:23;;;;;;;32.90;15.83;;;1.40;99.90;;;;;;4155376;28;20294;-61
2021/11/26 07:16:24;;;;;;;34.13;16.37;;;1.40;99.90;;;;;;4155621;28;20333;-61
2021/11/26 07:18:25;;;;;;;30.77;14.83;;;1.30;99.90;;;;;;4153941;28;20324;-61
2021/11/26 07:20:27;;;;;;;32.60;15.77;;;1.20;99.90;;;;;;4155336;28;20267;-61
2021/11/26 07:22:28;;;;;;;30.83;15.47;;;1.20;99.90;;;;;;4155071;28;20262;-62
2021/11/26 07:24:29;;;;;;;32.20;16.30;;;1.30;99.90;;;;;;4155179;28;20829;-61
2021/11/26 07:26:30;;;;;;;29.23;14.97;;;1.20;99.90;;;;;;4155079;28;20267;-62
2021/11/26 07:28:31;;;;;;;28.63;15.63;;;1.20;99.90;;;;;;4155574;28;20313;-61
2021/11/26 07:30:32;;;;;;;31.63;15.60;;;1.30;99.90;;;;;;4154816;28;20309;-61
2021/11/26 07:32:34;;;;;;;36.70;17.90;;;1.40;99.90;;;;;;4155611;28;20341;-61
2021/11/26 07:34:35;;;;;;;37.40;17.30;;;1.40;99.90;;;;;;4154091;28;20415;-64
2021/11/26 07:36:37;;;;;;;32.70;16.03;;;1.40;99.90;;;;;;4155444;28;20266;-60
2021/11/26 07:38:38;;;;;;;31.33;16.60;;;1.50;99.90;;;;;;4154939;28;20389;-61
2021/11/26 07:40:39;;;;;;;35.07;15.63;;;1.50;99.90;;;;;;4155730;28;20344;-61
2021/11/26 07:42:42;;;;;;;32.17;16.43;;;1.60;99.90;;;;;;4154898;28;20318;-61
2021/11/26 07:44:43;;;;;;;34.70;16.50;;;1.60;99.90;;;;;;4155752;28;20262;-60
2021/11/26 07:46:44;;;;;;;31.23;15.63;;;1.70;99.90;;;;;;4155176;28;20271;-61
2021/11/26 07:48:46;;;;;;;34.70;15.07;;;1.70;99.90;;;;;;4154977;28;20286;-61
2021/11/26 07:50:47;;;;;;;35.70;17.33;;;1.70;99.90;;;;;;4154980;28;20313;-60
2021/11/26 07:52:49;;;;;;;31.93;15.67;;;1.80;99.90;;;;;;4154729;28;20329;-60
2021/11/26 07:54:50;;;;;;;31.67;16.00;;;1.90;99.90;;;;;;4155147;28;20262;-61
2021/11/26 07:56:54;;;;;;;32.93;15.50;;;2.00;99.90;;;;;;4154650;28;20329;-60
2021/11/26 07:58:55;;;;;;;31.40;14.80;;;2.20;99.90;;;;;;4154352;28;20279;-64
2021/11/26 08:00:57;;;;;;;33.17;14.83;;;2.30;99.90;;;;;;4155244;28;20271;-60
2021/11/26 08:03:01;;;;;;;29.93;15.20;;;2.40;99.90;;;;;;4155506;28;20733;-61
2021/11/26 08:05:03;;;;;;;31.10;14.40;;;2.50;99.90;;;;;;4154319;28;20770;-61
2021/11/26 08:07:04;;;;;;;30.60;13.27;;;2.60;99.90;;;;;;4155157;28;20421;-61
2021/11/26 08:09:08;;;;;;;24.47;13.47;;;2.70;99.90;;;;;;4154123;28;20353;-61
2021/11/26 08:11:09;;;;;;;28.40;13.33;;;2.70;99.90;;;;;;4156989;28;20321;-61
2021/11/26 08:13:11;;;;;;;27.67;13.07;;;2.80;99.90;;;;;;4157789;28;20290;-61
2021/11/26 08:15:15;;;;;;;26.43;14.23;;;3.00;99.90;;;;;;4158209;28;20266;-60
2021/11/26 08:17:17;;;;;;;24.17;12.53;;;3.00;99.90;;;;;;4157745;28;20255;-60
2021/11/26 08:19:18;;;;;;;25.00;13.17;;;3.10;99.90;;;;;;4157631;28;20271;-61
2021/11/26 08:21:19;;;;;;;30.80;13.50;;;3.20;99.90;;;;;;4158221;28;20875;-64
2021/11/26 08:23:21;;;;;;;27.03;13.83;;;3.30;99.90;;;;;;4157950;28;20960;-60
2021/11/26 08:25:25;;;;;;;31.13;14.07;;;3.40;99.90;;;;;;4157712;28;20251;-61
2021/11/26 08:27:29;;;;;;;28.93;13.93;;;3.50;99.90;;;;;;4157717;28;20290;-60
2021/11/26 08:29:30;;;;;;;25.50;13.33;;;3.50;99.90;;;;;;4157680;28;20360;-60
2021/11/26 08:31:32;;;;;;;30.60;13.97;;;3.50;99.90;;;;;;4157674;28;20271;-61
2021/11/26 08:33:33;;;;;;;27.73;13.43;;;3.60;99.90;;;;;;4157773;28;20360;-61
2021/11/26 08:35:36;;;;;;;24.00;13.87;;;3.70;99.90;;;;;;4157709;28;20317;-61
2021/11/26 08:37:37;;;;;;;29.83;14.47;;;3.80;99.90;;;;;;4157835;28;20271;-60
2021/11/26 08:39:38;;;;;;;30.33;15.53;;;3.80;99.90;;;;;;4156978;28;20328;-60
2021/11/26 08:41:39;;;;;;;25.33;13.27;;;3.90;99.90;;;;;;4157062;28;20616;-60
2021/11/26 08:43:40;;;;;;;28.83;14.17;;;3.90;99.90;;;;;;4156265;28;20297;-61
2021/11/26 08:45:42;;;;;;;25.23;13.87;;;3.80;99.90;;;;;;4157456;28;20328;-61
2021/11/26 08:47:43;;;;;;;27.67;13.20;;;3.80;99.90;;;;;;4157390;28;20263;-62
2021/11/26 08:49:44;;;;;;;28.03;13.17;;;3.70;99.90;;;;;;4157784;28;20417;-62
2021/11/26 08:51:47;;;;;;;29.87;14.80;;;3.70;99.90;;;;;;4156553;28;20286;-61
2021/11/26 08:53:48;;;;;;;28.27;13.53;;;3.70;99.90;;;;;;4156069;28;20349;-62
2021/11/26 08:55:54;;;;;;;29.80;14.07;;;3.70;99.90;;;;;;4156875;28;20670;-61
2021/11/26 08:57:55;;;;;;;31.33;13.77;;;3.80;99.90;;;;;;4157728;28;20275;-61
2021/11/26 08:59:57;;;;;;;35.77;15.83;;;3.80;99.90;;;;;;4157464;28;20729;-62
2021/11/26 09:02:00;;;;;;;27.80;15.17;;;3.90;99.90;;;;;;4157425;28;20262;-62
2021/11/26 09:04:01;;;;;;;29.27;14.23;;;3.90;99.90;;;;;;4156919;28;20262;-62
2021/11/26 09:06:04;;;;;;;25.60;13.63;;;4.00;99.90;;;;;;4156677;28;20267;-61
2021/11/26 09:08:05;;;;;;;23.73;11.47;;;3.90;99.90;;;;;;4157606;28;20463;-61
2021/11/26 09:10:07;;;;;;;24.73;13.60;;;3.90;99.90;;;;;;4155533;28;20345;-62
2021/11/26 09:12:08;;;;;;;27.57;14.40;;;4.00;99.90;;;;;;4155871;28;20267;-61
2021/11/26 09:14:09;;;;;;;25.97;13.53;;;4.00;99.90;;;;;;4154767;28;20294;-61
2021/11/26 09:16:11;;;;;;;34.17;17.63;;;4.00;99.90;;;;;;4157516;28;20318;-62
2021/11/26 09:18:14;;;;;;;26.00;13.20;;;4.10;99.90;;;;;;4156741;28;20324;-62
2021/11/26 09:20:16;;;;;;;29.70;15.00;;;4.10;99.90;;;;;;4157651;28;20356;-64
2021/11/26 09:22:17;;;;;;;29.27;15.40;;;4.10;99.90;;;;;;4156384;28;20325;-61
2021/11/26 09:24:18;;;;;;;27.90;14.63;;;4.10;99.90;;;;;;4157434;28;20333;-62
2021/11/26 09:26:19;;;;;;;29.17;15.23;;;4.10;99.90;;;;;;4156564;28;20274;-62
2021/11/26 09:28:21;;;;;;;31.33;15.30;;;4.10;99.90;;;;;;4156929;28;20337;-62
2021/11/26 09:30:26;;;;;;;32.87;15.47;;;4.00;99.90;;;;;;4156626;28;20266;-62
2021/11/26 09:32:27;;;;;;;35.87;17.67;;;4.10;99.90;;;;;;4156525;28;20349;-61
2021/11/26 09:34:28;;;;;;;27.77;15.10;;;4.10;99.90;;;;;;4156885;28;20782;-62
2021/11/26 09:36:33;;;;;;;35.70;16.57;;;4.10;99.90;;;;;;4156627;28;20267;-62
2021/11/26 09:38:37;;;;;;;40.07;17.53;;;4.10;99.90;;;;;;4156621;28;20275;-61
2021/11/26 09:40:39;;;;;;;36.53;17.67;;;4.10;99.90;;;;;;4156048;28;20263;-62
2021/11/26 09:42:43;;;;;;;43.80;17.50;;;4.20;99.90;;;;;;4156557;28;20324;-62
2021/11/26 09:44:45;;;;;;;29.53;15.00;;;4.20;99.90;;;;;;4156575;28;20279;-62
2021/11/26 09:46:47;;;;;;;23.87;13.33;;;4.30;99.90;;;;;;4156698;28;20769;-60
2021/11/26 09:48:48;;;;;;;27.97;14.17;;;4.30;99.90;;;;;;4155607;28;20275;-61
2021/11/26 09:50:50;;;;;;;29.27;14.40;;;4.40;99.90;;;;;;4157197;28;20251;-61
2021/11/26 09:52:51;;;;;;;34.30;16.10;;;4.40;99.90;;;;;;4155706;28;20263;-62
2021/11/26 09:54:52;;;;;;;36.43;16.37;;;4.40;99.90;;;;;;4156262;28;20298;-61
2021/11/26 09:56:54;;;;;;;36.77;17.47;;;4.30;99.90;;;;;;4154313;28;20697;-62
2021/11/26 09:58:55;;;;;;;32.40;17.60;;;4.30;99.90;;;;;;4156991;28;20282;-61
2021/11/26 10:00:58;;;;;;;35.13;14.93;;;4.40;99.90;;;;;;4155828;28;20274;-61
2021/11/26 10:02:59;;;;;;;27.57;13.13;;;4.40;99.90;;;;;;4156401;28;20274;-62
2021/11/26 10:05:05;;;;;;;28.13;14.23;;;4.50;99.90;;;;;;4155707;28;20274;-70
2021/11/26 10:07:07;;;;;;;28.83;13.83;;;4.50;99.90;;;;;;4156153;28;20750;-61
2021/11/26 10:09:14;;;;;;;27.90;14.07;;;4.50;99.90;;;;;;4156241;28;20283;-61
2021/11/26 10:11:24;;;;;;;24.67;12.20;;;4.60;99.90;;;;;;4156604;28;20270;-60
2021/11/26 10:13:30;;;;;;;27.73;13.38;;;4.60;99.90;;;;;;4156203;28;20270;-61
2021/11/26 10:15:38;;;;;;;23.90;12.97;;;4.70;99.90;;;;;;4156602;28;20084;-60
2021/11/26 10:17:39;;;;;;;26.40;13.00;;;4.70;99.90;;;;;;4155835;28;20282;-61
2021/11/26 10:19:51;;;;;;;23.03;11.47;;;4.60;99.90;;;;;;4155985;28;21054;-61
2021/11/26 10:21:52;;;;;;;26.97;13.13;;;4.70;99.90;;;;;;4155494;28;20332;-61
2021/11/26 10:23:53;;;;;;;25.00;12.60;;;4.60;99.90;;;;;;4155937;28;20360;-61